sensor_id;sensor_type;location;lat;lon;timestamp;temperature;humidity
27647;DHT22;42229;51.230;6.240;2023-08-21T00:00:41;21.50;80.40
27647;DHT22;42229;51.230;6.240;2023-08-21T00:03:08;21.50;79.70
27647;DHT22;42229;51.230;6.240;2023-08-21T00:05:34;21.40;79.70
27647;DHT22;42229;51.230;6.240;2023-08-21T00:08:00;21.40;81.10
27647;DHT22;42229;51.230;6.240;2023-08-21T00:10:26;21.40;80.30
27647;DHT22;42229;51.230;6.240;2023-08-21T00:12:53;21.30;81.30
27647;DHT22;42229;51.230;6.240;2023-08-21T00:15:19;21.30;81.20
27647;DHT22;42229;51.230;6.240;2023-08-21T00:17:45;21.30;81.10
27647;DHT22;42229;51.230;6.240;2023-08-21T00:20:11;21.20;81.40
27647;DHT22;42229;51.230;6.240;2023-08-21T00:22:38;21.20;80.90
27647;DHT22;42229;51.230;6.240;2023-08-21T00:25:04;21.20;81.50
27647;DHT22;42229;51.230;6.240;2023-08-21T00:27:30;21.20;81.90
27647;DHT22;42229;51.230;6.240;2023-08-21T00:29:57;21.10;83.70
27647;DHT22;42229;51.230;6.240;2023-08-21T00:32:24;21.10;82.30
27647;DHT22;42229;51.230;6.240;2023-08-21T00:34:50;21.10;83.10
27647;DHT22;42229;51.230;6.240;2023-08-21T00:37:16;21.00;81.90
27647;DHT22;42229;51.230;6.240;2023-08-21T00:39:43;21.00;81.30
27647;DHT22;42229;51.230;6.240;2023-08-21T00:42:10;21.00;81.70
27647;DHT22;42229;51.230;6.240;2023-08-21T00:44:36;21.00;81.90
27647;DHT22;42229;51.230;6.240;2023-08-21T00:47:02;21.00;83.60
27647;DHT22;42229;51.230;6.240;2023-08-21T00:49:28;21.00;84.00
27647;DHT22;42229;51.230;6.240;2023-08-21T00:51:55;20.90;82.20
27647;DHT22;42229;51.230;6.240;2023-08-21T00:54:22;20.90;83.00
27647;DHT22;42229;51.230;6.240;2023-08-21T00:56:48;20.90;82.50
27647;DHT22;42229;51.230;6.240;2023-08-21T00:59:14;20.90;83.50
27647;DHT22;42229;51.230;6.240;2023-08-21T01:01:40;20.90;82.30
27647;DHT22;42229;51.230;6.240;2023-08-21T01:04:07;20.80;82.30
27647;DHT22;42229;51.230;6.240;2023-08-21T01:06:34;20.80;82.30
27647;DHT22;42229;51.230;6.240;2023-08-21T01:09:02;20.80;82.60
27647;DHT22;42229;51.230;6.240;2023-08-21T01:14:12;20.80;82.50
27647;DHT22;42229;51.230;6.240;2023-08-21T01:16:45;20.80;82.20
27647;DHT22;42229;51.230;6.240;2023-08-21T01:19:24;20.80;81.70
27647;DHT22;42229;51.230;6.240;2023-08-21T01:21:58;20.70;81.60
27647;DHT22;42229;51.230;6.240;2023-08-21T01:24:25;20.70;81.80
27647;DHT22;42229;51.230;6.240;2023-08-21T01:26:51;20.70;82.00
27647;DHT22;42229;51.230;6.240;2023-08-21T01:29:17;20.70;82.20
27647;DHT22;42229;51.230;6.240;2023-08-21T01:31:45;20.60;82.90
27647;DHT22;42229;51.230;6.240;2023-08-21T01:34:14;20.60;82.50
27647;DHT22;42229;51.230;6.240;2023-08-21T01:36:41;20.60;83.10
27647;DHT22;42229;51.230;6.240;2023-08-21T01:39:08;20.50;82.60
27647;DHT22;42229;51.230;6.240;2023-08-21T01:41:35;20.50;82.40
27647;DHT22;42229;51.230;6.240;2023-08-21T01:44:01;20.50;82.50
27647;DHT22;42229;51.230;6.240;2023-08-21T01:46:27;20.50;82.40
27647;DHT22;42229;51.230;6.240;2023-08-21T01:48:53;20.50;82.20
27647;DHT22;42229;51.230;6.240;2023-08-21T01:51:20;20.50;82.00
27647;DHT22;42229;51.230;6.240;2023-08-21T01:53:46;20.40;81.80
27647;DHT22;42229;51.230;6.240;2023-08-21T01:56:13;20.40;81.80
27647;DHT22;42229;51.230;6.240;2023-08-21T01:58:39;20.40;81.80
27647;DHT22;42229;51.230;6.240;2023-08-21T02:01:05;20.40;81.80
27647;DHT22;42229;51.230;6.240;2023-08-21T02:03:31;20.30;81.80
27647;DHT22;42229;51.230;6.240;2023-08-21T02:05:58;20.30;82.00
27647;DHT22;42229;51.230;6.240;2023-08-21T02:08:25;20.30;82.20
27647;DHT22;42229;51.230;6.240;2023-08-21T02:10:56;20.20;82.40
27647;DHT22;42229;51.230;6.240;2023-08-21T02:13:22;20.20;82.20
27647;DHT22;42229;51.230;6.240;2023-08-21T02:15:48;20.20;82.40
27647;DHT22;42229;51.230;6.240;2023-08-21T02:18:14;20.10;83.10
27647;DHT22;42229;51.230;6.240;2023-08-21T02:20:41;20.10;83.30
27647;DHT22;42229;51.230;6.240;2023-08-21T02:23:09;20.20;84.10
27647;DHT22;42229;51.230;6.240;2023-08-21T02:25:35;20.10;83.50
27647;DHT22;42229;51.230;6.240;2023-08-21T02:28:01;20.10;83.20
27647;DHT22;42229;51.230;6.240;2023-08-21T02:30:29;20.10;83.00
27647;DHT22;42229;51.230;6.240;2023-08-21T02:32:57;20.00;82.80
27647;DHT22;42229;51.230;6.240;2023-08-21T02:35:23;20.10;82.90
27647;DHT22;42229;51.230;6.240;2023-08-21T02:37:49;20.00;82.80
27647;DHT22;42229;51.230;6.240;2023-08-21T02:40:16;20.00;83.10
27647;DHT22;42229;51.230;6.240;2023-08-21T02:42:42;20.00;83.00
27647;DHT22;42229;51.230;6.240;2023-08-21T02:45:08;19.90;83.00
27647;DHT22;42229;51.230;6.240;2023-08-21T02:47:36;19.90;83.20
27647;DHT22;42229;51.230;6.240;2023-08-21T02:50:03;19.90;83.00
27647;DHT22;42229;51.230;6.240;2023-08-21T02:52:31;19.90;83.10
27647;DHT22;42229;51.230;6.240;2023-08-21T02:54:58;19.90;83.30
27647;DHT22;42229;51.230;6.240;2023-08-21T02:57:25;19.80;83.20
27647;DHT22;42229;51.230;6.240;2023-08-21T02:59:52;19.80;83.30
27647;DHT22;42229;51.230;6.240;2023-08-21T03:02:18;19.80;83.50
27647;DHT22;42229;51.230;6.240;2023-08-21T03:04:44;19.80;83.40
27647;DHT22;42229;51.230;6.240;2023-08-21T03:07:11;19.70;83.40
27647;DHT22;42229;51.230;6.240;2023-08-21T03:09:37;19.70;83.50
27647;DHT22;42229;51.230;6.240;2023-08-21T03:12:03;19.70;85.90
27647;DHT22;42229;51.230;6.240;2023-08-21T03:14:30;19.70;87.80
27647;DHT22;42229;51.230;6.240;2023-08-21T03:16:56;19.70;90.50
27647;DHT22;42229;51.230;6.240;2023-08-21T03:19:22;19.70;89.30
27647;DHT22;42229;51.230;6.240;2023-08-21T03:21:49;19.70;87.20
27647;DHT22;42229;51.230;6.240;2023-08-21T03:24:15;19.60;86.70
27647;DHT22;42229;51.230;6.240;2023-08-21T03:26:42;19.60;85.90
27647;DHT22;42229;51.230;6.240;2023-08-21T03:29:08;19.60;85.70
27647;DHT22;42229;51.230;6.240;2023-08-21T03:31:34;19.60;85.70
27647;DHT22;42229;51.230;6.240;2023-08-21T03:34:01;19.60;86.40
27647;DHT22;42229;51.230;6.240;2023-08-21T03:36:28;19.60;86.50
27647;DHT22;42229;51.230;6.240;2023-08-21T03:38:59;19.60;86.60
27647;DHT22;42229;51.230;6.240;2023-08-21T03:41:26;19.60;87.00
27647;DHT22;42229;51.230;6.240;2023-08-21T03:43:53;19.60;88.10
27647;DHT22;42229;51.230;6.240;2023-08-21T03:46:19;19.60;88.80
27647;DHT22;42229;51.230;6.240;2023-08-21T03:48:46;19.60;88.80
27647;DHT22;42229;51.230;6.240;2023-08-21T03:51:12;19.60;88.00
27647;DHT22;42229;51.230;6.240;2023-08-21T03:53:38;19.60;88.10
27647;DHT22;42229;51.230;6.240;2023-08-21T03:56:05;19.60;87.10
27647;DHT22;42229;51.230;6.240;2023-08-21T03:58:32;19.60;87.70
27647;DHT22;42229;51.230;6.240;2023-08-21T04:00:58;19.50;87.60
27647;DHT22;42229;51.230;6.240;2023-08-21T04:03:24;19.60;87.50
27647;DHT22;42229;51.230;6.240;2023-08-21T04:05:53;19.60;87.20
27647;DHT22;42229;51.230;6.240;2023-08-21T04:08:19;19.50;86.80
27647;DHT22;42229;51.230;6.240;2023-08-21T04:10:45;19.50;86.90
27647;DHT22;42229;51.230;6.240;2023-08-21T04:13:12;19.50;87.00
27647;DHT22;42229;51.230;6.240;2023-08-21T04:15:38;19.50;86.70
27647;DHT22;42229;51.230;6.240;2023-08-21T04:18:04;19.50;86.60
27647;DHT22;42229;51.230;6.240;2023-08-21T04:20:31;19.50;86.60
27647;DHT22;42229;51.230;6.240;2023-08-21T04:22:57;19.50;87.00
27647;DHT22;42229;51.230;6.240;2023-08-21T04:25:23;19.50;87.60
27647;DHT22;42229;51.230;6.240;2023-08-21T04:27:50;19.50;87.50
27647;DHT22;42229;51.230;6.240;2023-08-21T04:30:16;19.50;88.30
27647;DHT22;42229;51.230;6.240;2023-08-21T04:32:42;19.50;88.60
27647;DHT22;42229;51.230;6.240;2023-08-21T04:35:09;19.60;89.30
27647;DHT22;42229;51.230;6.240;2023-08-21T04:37:37;19.60;88.50
27647;DHT22;42229;51.230;6.240;2023-08-21T04:40:05;19.60;88.40
27647;DHT22;42229;51.230;6.240;2023-08-21T04:42:31;19.60;88.40
27647;DHT22;42229;51.230;6.240;2023-08-21T04:44:58;19.70;88.50
27647;DHT22;42229;51.230;6.240;2023-08-21T04:47:27;19.70;88.70
27647;DHT22;42229;51.230;6.240;2023-08-21T04:49:57;19.70;88.40
27647;DHT22;42229;51.230;6.240;2023-08-21T04:52:24;19.70;88.10
27647;DHT22;42229;51.230;6.240;2023-08-21T04:54:51;19.70;87.80
27647;DHT22;42229;51.230;6.240;2023-08-21T04:57:18;19.70;87.90
27647;DHT22;42229;51.230;6.240;2023-08-21T04:59:47;19.70;87.70
27647;DHT22;42229;51.230;6.240;2023-08-21T05:02:13;19.70;87.70
27647;DHT22;42229;51.230;6.240;2023-08-21T05:04:40;19.80;88.90
27647;DHT22;42229;51.230;6.240;2023-08-21T05:07:08;19.80;89.90
27647;DHT22;42229;51.230;6.240;2023-08-21T05:09:34;19.80;90.50
27647;DHT22;42229;51.230;6.240;2023-08-21T05:12:02;19.70;90.10
27647;DHT22;42229;51.230;6.240;2023-08-21T05:14:29;19.70;89.40
27647;DHT22;42229;51.230;6.240;2023-08-21T05:16:55;19.70;89.90
27647;DHT22;42229;51.230;6.240;2023-08-21T05:19:22;19.70;90.80
27647;DHT22;42229;51.230;6.240;2023-08-21T05:21:48;19.60;91.40
27647;DHT22;42229;51.230;6.240;2023-08-21T05:24:14;19.60;91.60
27647;DHT22;42229;51.230;6.240;2023-08-21T05:26:47;19.60;90.80
27647;DHT22;42229;51.230;6.240;2023-08-21T05:29:13;19.50;90.40
27647;DHT22;42229;51.230;6.240;2023-08-21T05:31:39;19.50;91.60
27647;DHT22;42229;51.230;6.240;2023-08-21T05:34:06;19.50;94.00
27647;DHT22;42229;51.230;6.240;2023-08-21T05:36:32;19.50;93.80
27647;DHT22;42229;51.230;6.240;2023-08-21T05:39:01;19.40;91.90
27647;DHT22;42229;51.230;6.240;2023-08-21T05:41:29;19.40;92.60
27647;DHT22;42229;51.230;6.240;2023-08-21T05:43:55;19.40;93.90
27647;DHT22;42229;51.230;6.240;2023-08-21T05:46:23;19.40;94.50
27647;DHT22;42229;51.230;6.240;2023-08-21T05:48:50;19.40;93.00
27647;DHT22;42229;51.230;6.240;2023-08-21T05:51:16;19.40;94.10
27647;DHT22;42229;51.230;6.240;2023-08-21T05:53:42;19.50;94.70
27647;DHT22;42229;51.230;6.240;2023-08-21T05:56:08;19.50;95.30
27647;DHT22;42229;51.230;6.240;2023-08-21T05:58:35;19.60;95.50
27647;DHT22;42229;51.230;6.240;2023-08-21T06:01:01;19.60;94.60
27647;DHT22;42229;51.230;6.240;2023-08-21T06:03:28;19.60;93.70
27647;DHT22;42229;51.230;6.240;2023-08-21T06:06:16;19.70;94.20
27647;DHT22;42229;51.230;6.240;2023-08-21T06:08:43;19.80;95.10
27647;DHT22;42229;51.230;6.240;2023-08-21T06:11:09;19.80;94.60
27647;DHT22;42229;51.230;6.240;2023-08-21T06:13:35;19.80;96.80
27647;DHT22;42229;51.230;6.240;2023-08-21T06:16:02;19.90;98.30
27647;DHT22;42229;51.230;6.240;2023-08-21T06:18:29;20.00;99.50
27647;DHT22;42229;51.230;6.240;2023-08-21T06:20:55;20.10;98.50
27647;DHT22;42229;51.230;6.240;2023-08-21T06:23:22;20.10;99.90
27647;DHT22;42229;51.230;6.240;2023-08-21T06:25:48;20.20;99.90
27647;DHT22;42229;51.230;6.240;2023-08-21T06:28:15;20.20;99.90
27647;DHT22;42229;51.230;6.240;2023-08-21T06:30:42;20.30;99.90
27647;DHT22;42229;51.230;6.240;2023-08-21T06:33:08;20.40;99.90
27647;DHT22;42229;51.230;6.240;2023-08-21T06:35:38;20.40;99.90
27647;DHT22;42229;51.230;6.240;2023-08-21T06:38:04;20.50;99.90
27647;DHT22;42229;51.230;6.240;2023-08-21T06:40:32;20.60;99.40
27647;DHT22;42229;51.230;6.240;2023-08-21T06:42:58;20.70;99.90
27647;DHT22;42229;51.230;6.240;2023-08-21T06:45:28;20.80;99.90
27647;DHT22;42229;51.230;6.240;2023-08-21T06:47:57;20.90;99.70
27647;DHT22;42229;51.230;6.240;2023-08-21T06:50:24;21.00;99.90
27647;DHT22;42229;51.230;6.240;2023-08-21T06:52:50;21.10;99.90
27647;DHT22;42229;51.230;6.240;2023-08-21T06:55:16;21.20;99.90
27647;DHT22;42229;51.230;6.240;2023-08-21T06:57:42;21.20;99.90
27647;DHT22;42229;51.230;6.240;2023-08-21T07:00:09;21.30;99.30
27647;DHT22;42229;51.230;6.240;2023-08-21T07:02:35;21.40;99.90
27647;DHT22;42229;51.230;6.240;2023-08-21T07:05:02;21.50;99.40
27647;DHT22;42229;51.230;6.240;2023-08-21T07:07:28;21.60;99.60
27647;DHT22;42229;51.230;6.240;2023-08-21T07:09:55;21.70;99.80
27647;DHT22;42229;51.230;6.240;2023-08-21T07:12:22;21.80;99.20
27647;DHT22;42229;51.230;6.240;2023-08-21T07:14:48;21.90;98.30
27647;DHT22;42229;51.230;6.240;2023-08-21T07:17:14;22.00;98.40
27647;DHT22;42229;51.230;6.240;2023-08-21T07:19:40;22.00;98.80
27647;DHT22;42229;51.230;6.240;2023-08-21T07:22:07;22.20;98.70
27647;DHT22;42229;51.230;6.240;2023-08-21T07:24:33;22.20;98.90
27647;DHT22;42229;51.230;6.240;2023-08-21T07:26:59;22.30;98.60
27647;DHT22;42229;51.230;6.240;2023-08-21T07:29:25;22.40;98.50
27647;DHT22;42229;51.230;6.240;2023-08-21T07:31:52;22.50;98.10
27647;DHT22;42229;51.230;6.240;2023-08-21T07:34:18;22.60;97.80
27647;DHT22;42229;51.230;6.240;2023-08-21T07:36:44;22.60;98.10
27647;DHT22;42229;51.230;6.240;2023-08-21T07:39:10;22.70;97.60
27647;DHT22;42229;51.230;6.240;2023-08-21T07:41:37;22.80;97.60
27647;DHT22;42229;51.230;6.240;2023-08-21T07:44:03;22.90;97.80
27647;DHT22;42229;51.230;6.240;2023-08-21T07:46:29;23.00;97.90
27647;DHT22;42229;51.230;6.240;2023-08-21T07:48:57;23.10;97.60
27647;DHT22;42229;51.230;6.240;2023-08-21T07:51:24;23.20;97.50
27647;DHT22;42229;51.230;6.240;2023-08-21T07:53:50;23.30;97.40
27647;DHT22;42229;51.230;6.240;2023-08-21T07:56:16;23.50;97.40
27647;DHT22;42229;51.230;6.240;2023-08-21T07:58:42;23.50;97.20
27647;DHT22;42229;51.230;6.240;2023-08-21T08:01:09;23.60;97.40
27647;DHT22;42229;51.230;6.240;2023-08-21T08:03:35;23.70;97.00
27647;DHT22;42229;51.230;6.240;2023-08-21T08:06:01;23.80;96.90
27647;DHT22;42229;51.230;6.240;2023-08-21T08:08:27;24.00;97.00
27647;DHT22;42229;51.230;6.240;2023-08-21T08:10:55;24.00;97.00
27647;DHT22;42229;51.230;6.240;2023-08-21T08:13:21;24.20;96.40
27647;DHT22;42229;51.230;6.240;2023-08-21T08:15:47;24.30;96.00
27647;DHT22;42229;51.230;6.240;2023-08-21T08:18:15;24.40;96.10
27647;DHT22;42229;51.230;6.240;2023-08-21T08:20:41;24.50;96.00
27647;DHT22;42229;51.230;6.240;2023-08-21T08:23:07;24.60;95.60
27647;DHT22;42229;51.230;6.240;2023-08-21T08:25:33;24.80;95.80
27647;DHT22;42229;51.230;6.240;2023-08-21T08:27:59;24.90;95.10
27647;DHT22;42229;51.230;6.240;2023-08-21T08:30:26;25.00;95.50
27647;DHT22;42229;51.230;6.240;2023-08-21T08:32:52;25.10;95.50
27647;DHT22;42229;51.230;6.240;2023-08-21T08:35:18;25.30;94.30
27647;DHT22;42229;51.230;6.240;2023-08-21T08:37:44;25.40;95.10
27647;DHT22;42229;51.230;6.240;2023-08-21T08:40:11;25.50;94.50
27647;DHT22;42229;51.230;6.240;2023-08-21T08:42:37;25.60;93.70
27647;DHT22;42229;51.230;6.240;2023-08-21T08:45:04;25.70;94.30
27647;DHT22;42229;51.230;6.240;2023-08-21T08:47:34;25.80;93.70
27647;DHT22;42229;51.230;6.240;2023-08-21T08:50:01;25.90;92.00
27647;DHT22;42229;51.230;6.240;2023-08-21T08:52:30;26.00;92.00
27647;DHT22;42229;51.230;6.240;2023-08-21T08:54:57;26.10;91.80
27647;DHT22;42229;51.230;6.240;2023-08-21T08:57:23;26.20;92.30
27647;DHT22;42229;51.230;6.240;2023-08-21T08:59:50;26.30;92.50
27647;DHT22;42229;51.230;6.240;2023-08-21T09:02:16;26.30;92.60
27647;DHT22;42229;51.230;6.240;2023-08-21T09:04:42;26.50;93.70
27647;DHT22;42229;51.230;6.240;2023-08-21T09:07:09;26.60;93.00
27647;DHT22;42229;51.230;6.240;2023-08-21T09:09:44;26.70;92.20
27647;DHT22;42229;51.230;6.240;2023-08-21T09:12:12;26.70;92.40
27647;DHT22;42229;51.230;6.240;2023-08-21T09:14:40;26.90;92.30
27647;DHT22;42229;51.230;6.240;2023-08-21T09:17:07;26.90;92.70
27647;DHT22;42229;51.230;6.240;2023-08-21T09:19:33;27.10;91.90
27647;DHT22;42229;51.230;6.240;2023-08-21T09:22:13;27.10;91.50
27647;DHT22;42229;51.230;6.240;2023-08-21T09:24:41;27.20;91.40
27647;DHT22;42229;51.230;6.240;2023-08-21T09:27:26;27.20;90.00
27647;DHT22;42229;51.230;6.240;2023-08-21T09:29:52;27.30;90.10
27647;DHT22;42229;51.230;6.240;2023-08-21T09:32:19;27.30;91.30
27647;DHT22;42229;51.230;6.240;2023-08-21T09:34:45;27.40;91.90
27647;DHT22;42229;51.230;6.240;2023-08-21T09:37:11;27.50;90.60
27647;DHT22;42229;51.230;6.240;2023-08-21T09:39:38;27.50;88.80
27647;DHT22;42229;51.230;6.240;2023-08-21T09:42:04;27.60;90.30
27647;DHT22;42229;51.230;6.240;2023-08-21T09:44:38;27.70;90.70
27647;DHT22;42229;51.230;6.240;2023-08-21T09:47:07;27.80;90.20
27647;DHT22;42229;51.230;6.240;2023-08-21T09:49:35;27.80;90.40
27647;DHT22;42229;51.230;6.240;2023-08-21T09:52:03;27.90;90.10
27647;DHT22;42229;51.230;6.240;2023-08-21T09:54:31;27.90;88.80
27647;DHT22;42229;51.230;6.240;2023-08-21T09:57:03;28.00;90.20
27647;DHT22;42229;51.230;6.240;2023-08-21T09:59:30;28.10;90.00
27647;DHT22;42229;51.230;6.240;2023-08-21T10:01:58;28.10;89.50
27647;DHT22;42229;51.230;6.240;2023-08-21T10:04:30;28.20;89.70
27647;DHT22;42229;51.230;6.240;2023-08-21T10:06:58;28.20;89.10
27647;DHT22;42229;51.230;6.240;2023-08-21T10:09:25;28.30;89.60
27647;DHT22;42229;51.230;6.240;2023-08-21T10:11:53;28.40;87.70
27647;DHT22;42229;51.230;6.240;2023-08-21T10:14:20;28.50;87.70
27647;DHT22;42229;51.230;6.240;2023-08-21T10:16:48;28.50;84.80
27647;DHT22;42229;51.230;6.240;2023-08-21T10:19:17;28.50;88.10
27647;DHT22;42229;51.230;6.240;2023-08-21T10:21:45;28.60;86.80
27647;DHT22;42229;51.230;6.240;2023-08-21T10:24:12;28.70;88.80
27647;DHT22;42229;51.230;6.240;2023-08-21T10:26:39;28.70;86.50
27647;DHT22;42229;51.230;6.240;2023-08-21T10:29:07;28.80;87.90
27647;DHT22;42229;51.230;6.240;2023-08-21T10:31:35;28.80;84.90
27647;DHT22;42229;51.230;6.240;2023-08-21T10:34:08;28.90;88.70
27647;DHT22;42229;51.230;6.240;2023-08-21T10:39:14;29.00;87.30
27647;DHT22;42229;51.230;6.240;2023-08-21T10:42:02;29.10;87.50
27647;DHT22;42229;51.230;6.240;2023-08-21T10:44:49;29.20;88.60
27647;DHT22;42229;51.230;6.240;2023-08-21T10:49:54;29.20;86.30
27647;DHT22;42229;51.230;6.240;2023-08-21T10:52:25;29.20;86.00
27647;DHT22;42229;51.230;6.240;2023-08-21T10:54:54;29.20;83.30
27647;DHT22;42229;51.230;6.240;2023-08-21T10:57:22;29.30;85.60
27647;DHT22;42229;51.230;6.240;2023-08-21T10:59:55;29.30;85.90
27647;DHT22;42229;51.230;6.240;2023-08-21T11:02:28;29.30;84.50
27647;DHT22;42229;51.230;6.240;2023-08-21T11:04:55;29.30;86.00
27647;DHT22;42229;51.230;6.240;2023-08-21T11:07:21;29.40;86.30
27647;DHT22;42229;51.230;6.240;2023-08-21T11:09:48;29.50;85.40
27647;DHT22;42229;51.230;6.240;2023-08-21T11:12:15;29.50;86.00
27647;DHT22;42229;51.230;6.240;2023-08-21T11:14:42;29.60;83.70
27647;DHT22;42229;51.230;6.240;2023-08-21T11:17:09;29.70;85.30
27647;DHT22;42229;51.230;6.240;2023-08-21T11:19:36;29.80;85.90
27647;DHT22;42229;51.230;6.240;2023-08-21T11:22:03;29.80;87.10
27647;DHT22;42229;51.230;6.240;2023-08-21T11:24:31;29.90;81.90
27647;DHT22;42229;51.230;6.240;2023-08-21T11:27:18;29.90;85.70
27647;DHT22;42229;51.230;6.240;2023-08-21T11:29:48;30.00;82.90
27647;DHT22;42229;51.230;6.240;2023-08-21T11:32:17;30.00;84.60
27647;DHT22;42229;51.230;6.240;2023-08-21T11:34:48;30.00;83.20
27647;DHT22;42229;51.230;6.240;2023-08-21T11:37:19;29.90;83.50
27647;DHT22;42229;51.230;6.240;2023-08-21T11:39:53;29.90;83.50
27647;DHT22;42229;51.230;6.240;2023-08-21T11:42:21;29.90;83.00
27647;DHT22;42229;51.230;6.240;2023-08-21T11:44:49;29.80;81.90
27647;DHT22;42229;51.230;6.240;2023-08-21T11:47:17;29.90;82.80
27647;DHT22;42229;51.230;6.240;2023-08-21T11:49:45;29.90;83.00
27647;DHT22;42229;51.230;6.240;2023-08-21T11:52:13;30.00;84.10
27647;DHT22;42229;51.230;6.240;2023-08-21T11:54:40;30.10;84.60
27647;DHT22;42229;51.230;6.240;2023-08-21T11:57:07;30.10;81.20
27647;DHT22;42229;51.230;6.240;2023-08-21T11:59:34;30.20;84.80
27647;DHT22;42229;51.230;6.240;2023-08-21T12:02:05;30.30;83.40
27647;DHT22;42229;51.230;6.240;2023-08-21T12:04:34;30.50;83.80
27647;DHT22;42229;51.230;6.240;2023-08-21T12:07:00;30.60;82.00
27647;DHT22;42229;51.230;6.240;2023-08-21T12:09:27;30.70;82.60
27647;DHT22;42229;51.230;6.240;2023-08-21T12:11:53;30.80;83.50
27647;DHT22;42229;51.230;6.240;2023-08-21T12:14:19;30.90;83.30
27647;DHT22;42229;51.230;6.240;2023-08-21T12:16:45;30.90;83.80
27647;DHT22;42229;51.230;6.240;2023-08-21T12:19:12;30.90;82.60
27647;DHT22;42229;51.230;6.240;2023-08-21T12:21:40;30.90;79.30
27647;DHT22;42229;51.230;6.240;2023-08-21T12:24:06;30.80;82.20
27647;DHT22;42229;51.230;6.240;2023-08-21T12:26:33;30.70;80.00
27647;DHT22;42229;51.230;6.240;2023-08-21T12:28:59;30.70;82.30
27647;DHT22;42229;51.230;6.240;2023-08-21T12:31:26;30.70;82.70
27647;DHT22;42229;51.230;6.240;2023-08-21T12:33:52;30.70;80.90
27647;DHT22;42229;51.230;6.240;2023-08-21T12:36:19;30.70;80.90
27647;DHT22;42229;51.230;6.240;2023-08-21T12:38:45;30.90;81.40
27647;DHT22;42229;51.230;6.240;2023-08-21T12:41:11;30.90;81.90
27647;DHT22;42229;51.230;6.240;2023-08-21T12:43:37;31.00;82.00
27647;DHT22;42229;51.230;6.240;2023-08-21T12:46:04;31.20;80.50
27647;DHT22;42229;51.230;6.240;2023-08-21T12:48:30;31.30;82.70
27647;DHT22;42229;51.230;6.240;2023-08-21T12:50:56;31.50;81.10
27647;DHT22;42229;51.230;6.240;2023-08-21T12:53:22;31.60;80.50
27647;DHT22;42229;51.230;6.240;2023-08-21T12:55:48;31.70;78.90
27647;DHT22;42229;51.230;6.240;2023-08-21T12:58:15;31.80;77.80
27647;DHT22;42229;51.230;6.240;2023-08-21T13:00:41;31.90;79.30
27647;DHT22;42229;51.230;6.240;2023-08-21T13:03:07;32.00;78.60
27647;DHT22;42229;51.230;6.240;2023-08-21T13:05:34;32.00;78.90
27647;DHT22;42229;51.230;6.240;2023-08-21T13:08:00;32.00;78.30
27647;DHT22;42229;51.230;6.240;2023-08-21T13:10:26;32.10;79.10
27647;DHT22;42229;51.230;6.240;2023-08-21T13:12:53;32.20;79.40
27647;DHT22;42229;51.230;6.240;2023-08-21T13:15:19;32.30;79.80
27647;DHT22;42229;51.230;6.240;2023-08-21T13:17:45;32.40;79.30
27647;DHT22;42229;51.230;6.240;2023-08-21T13:20:11;32.30;77.00
27647;DHT22;42229;51.230;6.240;2023-08-21T13:22:44;32.30;77.10
27647;DHT22;42229;51.230;6.240;2023-08-21T13:25:18;32.30;75.80
27647;DHT22;42229;51.230;6.240;2023-08-21T13:27:45;32.30;75.50
27647;DHT22;42229;51.230;6.240;2023-08-21T13:30:12;32.20;76.50
27647;DHT22;42229;51.230;6.240;2023-08-21T13:32:39;32.10;75.90
27647;DHT22;42229;51.230;6.240;2023-08-21T13:35:05;32.10;75.60
27647;DHT22;42229;51.230;6.240;2023-08-21T13:37:35;32.10;76.20
27647;DHT22;42229;51.230;6.240;2023-08-21T13:40:02;32.10;77.10
27647;DHT22;42229;51.230;6.240;2023-08-21T13:42:39;32.10;76.70
27647;DHT22;42229;51.230;6.240;2023-08-21T13:45:07;32.10;77.60
27647;DHT22;42229;51.230;6.240;2023-08-21T13:47:35;32.10;77.60
27647;DHT22;42229;51.230;6.240;2023-08-21T13:50:01;32.20;77.80
27647;DHT22;42229;51.230;6.240;2023-08-21T13:52:27;32.30;78.50
27647;DHT22;42229;51.230;6.240;2023-08-21T13:54:54;32.40;75.30
27647;DHT22;42229;51.230;6.240;2023-08-21T13:57:20;32.60;76.10
27647;DHT22;42229;51.230;6.240;2023-08-21T13:59:46;32.80;76.00
27647;DHT22;42229;51.230;6.240;2023-08-21T14:02:12;33.10;76.20
27647;DHT22;42229;51.230;6.240;2023-08-21T14:04:39;33.30;74.00
27647;DHT22;42229;51.230;6.240;2023-08-21T14:07:05;33.60;76.10
27647;DHT22;42229;51.230;6.240;2023-08-21T14:09:31;33.90;73.10
27647;DHT22;42229;51.230;6.240;2023-08-21T14:11:57;34.20;75.80
27647;DHT22;42229;51.230;6.240;2023-08-21T14:14:23;34.40;70.80
27647;DHT22;42229;51.230;6.240;2023-08-21T14:16:50;34.70;67.90
27647;DHT22;42229;51.230;6.240;2023-08-21T14:19:16;34.80;71.20
27647;DHT22;42229;51.230;6.240;2023-08-21T14:21:42;34.90;70.30
27647;DHT22;42229;51.230;6.240;2023-08-21T14:24:08;34.90;69.40
27647;DHT22;42229;51.230;6.240;2023-08-21T14:26:34;34.90;69.40
27647;DHT22;42229;51.230;6.240;2023-08-21T14:29:01;35.00;66.60
27647;DHT22;42229;51.230;6.240;2023-08-21T14:31:27;34.90;69.50
27647;DHT22;42229;51.230;6.240;2023-08-21T14:33:53;34.90;68.40
27647;DHT22;42229;51.230;6.240;2023-08-21T14:36:19;34.90;69.60
27647;DHT22;42229;51.230;6.240;2023-08-21T14:38:46;35.00;70.40
27647;DHT22;42229;51.230;6.240;2023-08-21T14:41:12;35.00;70.40
27647;DHT22;42229;51.230;6.240;2023-08-21T14:43:38;35.10;69.60
27647;DHT22;42229;51.230;6.240;2023-08-21T14:46:04;35.20;70.50
27647;DHT22;42229;51.230;6.240;2023-08-21T14:48:30;35.40;70.20
27647;DHT22;42229;51.230;6.240;2023-08-21T14:50:57;35.50;67.40
27647;DHT22;42229;51.230;6.240;2023-08-21T14:53:23;35.50;66.60
27647;DHT22;42229;51.230;6.240;2023-08-21T14:55:49;35.70;68.10
27647;DHT22;42229;51.230;6.240;2023-08-21T14:58:16;35.70;66.80
27647;DHT22;42229;51.230;6.240;2023-08-21T15:00:42;35.90;67.20
27647;DHT22;42229;51.230;6.240;2023-08-21T15:03:09;35.90;67.70
27647;DHT22;42229;51.230;6.240;2023-08-21T15:05:35;36.10;67.60
27647;DHT22;42229;51.230;6.240;2023-08-21T15:08:01;36.20;67.00
27647;DHT22;42229;51.230;6.240;2023-08-21T15:10:28;36.30;66.30
27647;DHT22;42229;51.230;6.240;2023-08-21T15:12:54;36.50;65.80
27647;DHT22;42229;51.230;6.240;2023-08-21T15:15:20;36.60;67.50
27647;DHT22;42229;51.230;6.240;2023-08-21T15:17:47;36.70;66.10
27647;DHT22;42229;51.230;6.240;2023-08-21T15:20:13;36.80;67.30
27647;DHT22;42229;51.230;6.240;2023-08-21T15:22:41;36.90;65.20
27647;DHT22;42229;51.230;6.240;2023-08-21T15:25:08;37.00;62.00
27647;DHT22;42229;51.230;6.240;2023-08-21T15:27:35;37.00;64.10
27647;DHT22;42229;51.230;6.240;2023-08-21T15:30:01;37.00;64.60
27647;DHT22;42229;51.230;6.240;2023-08-21T15:32:28;37.10;66.00
27647;DHT22;42229;51.230;6.240;2023-08-21T15:34:54;37.10;62.20
27647;DHT22;42229;51.230;6.240;2023-08-21T15:37:20;37.20;63.80